Time,TemperatureF,DewpointF,PressureIn,WindDirection,WindDirectionDegrees,WindSpeedMPH,WindSpeedGustMPH,Humidity,HourlyPrecipIn,Conditions,Clouds,dailyrainin,SoftwareType,DateUTC
2013-09-09 00:14:00,69.0,65.0,29.96,ENE,71,0.0,0.0,87,0.00,,,0.00,,2013-09-09 04:14:00,
2013-09-09 00:24:00,68.0,64.0,29.97,ENE,71,0.0,0.0,88,0.00,,,0.00,,2013-09-09 04:24:00,
2013-09-09 00:54:00,68.0,65.0,29.97,ENE,71,0.0,0.0,90,0.00,,,0.00,,2013-09-09 04:54:00,
2013-09-09 01:23:00,67.0,64.0,29.98,ENE,71,0.0,0.0,91,0.00,,,0.00,,2013-09-09 05:23:00,
2013-09-09 01:53:00,67.0,65.0,29.98,ENE,71,0.0,0.0,92,0.00,,,0.00,,2013-09-09 05:53:00,
2013-09-09 02:22:00,67.0,65.0,29.98,ENE,71,0.0,0.0,93,0.00,,,0.00,,2013-09-09 06:22:00,
2013-09-09 02:52:00,67.0,65.0,29.98,ENE,71,0.0,0.0,93,0.00,,,0.00,,2013-09-09 06:52:00,
2013-09-09 03:22:00,66.0,64.0,29.98,ENE,71,0.0,0.0,94,0.00,,,0.00,,2013-09-09 07:22:00,
2013-09-09 03:52:00,66.0,64.0,29.99,ENE,71,0.0,0.0,94,0.00,,,0.00,,2013-09-09 07:52:00,
2013-09-09 04:22:00,65.0,64.0,29.99,ENE,71,0.0,0.0,95,0.00,,,0.00,,2013-09-09 08:22:00,
2013-09-09 04:52:00,65.0,64.0,30.00,ENE,71,0.0,1.0,95,0.00,,,0.00,,2013-09-09 08:52:00,
2013-09-09 05:22:00,65.0,64.0,30.01,ENE,71,0.0,0.0,95,0.00,,,0.00,,2013-09-09 09:22:00,
2013-09-09 05:54:00,65.0,64.0,30.01,ENE,71,0.0,0.0,95,0.00,,,0.00,,2013-09-09 09:54:00,
2013-09-09 06:23:00,64.0,63.0,30.02,ENE,71,0.0,0.0,95,0.00,,,0.00,,2013-09-09 10:23:00,
2013-09-09 06:53:00,64.0,63.0,30.03,ENE,71,0.0,0.0,96,0.00,,,0.00,,2013-09-09 10:53:00,
2013-09-09 07:22:00,64.0,63.0,30.04,ENE,71,0.0,0.0,96,0.00,,,0.00,,2013-09-09 11:22:00,
2013-09-09 07:52:00,64.0,63.0,30.05,ENE,71,0.0,0.0,96,0.00,,,0.00,,2013-09-09 11:52:00,
2013-09-09 08:22:00,64.0,63.0,30.06,ENE,71,0.0,0.0,97,0.00,,,0.00,,2013-09-09 12:22:00,
2013-09-09 08:52:00,65.0,64.0,30.07,ENE,71,0.0,0.0,98,0.00,,,0.00,,2013-09-09 12:52:00,
2013-09-09 09:22:00,68.0,67.0,30.07,ENE,71,0.0,0.0,98,0.00,,,0.00,,2013-09-09 13:22:00,
2013-09-09 09:52:00,71.0,68.0,30.08,ENE,68,0.0,2.0,90,0.00,,,0.00,,2013-09-09 13:52:00,
2013-09-09 10:22:00,76.0,67.0,30.09,NE,49,2.0,5.0,75,0.00,,,0.00,,2013-09-09 14:22:00,
2013-09-09 10:52:00,79.0,68.0,30.09,East,82,1.0,4.0,69,0.00,,,0.00,,2013-09-09 14:52:00,
2013-09-09 11:22:00,80.0,67.0,30.09,NE,40,0.0,6.0,64,0.00,,,0.00,,2013-09-09 15:22:00,
2013-09-09 11:53:00,81.0,67.0,30.10,East,82,1.0,7.0,63,0.00,,,0.00,,2013-09-09 15:53:00,
2013-09-09 12:25:00,84.0,67.0,30.10,South,190,0.0,6.0,57,0.00,,,0.00,,2013-09-09 16:25:00,
2013-09-09 12:54:00,85.0,67.0,30.09,ENE,71,2.0,5.0,55,0.00,,,0.00,,2013-09-09 16:54:00,
2013-09-09 13:23:00,86.0,66.0,30.10,SSE,152,1.0,5.0,52,0.00,,,0.00,,2013-09-09 17:23:00,
2013-09-09 13:53:00,87.0,67.0,30.09,NNE,12,0.0,4.0,51,0.00,,,0.00,,2013-09-09 17:53:00,
2013-09-09 14:13:00,87.0,66.0,30.09,SSW,200,0.0,4.0,50,0.00,,,0.00,,2013-09-09 18:13:00,
2013-09-09 14:22:00,88.0,68.0,30.09,East,94,2.0,5.0,52,0.00,,,0.00,,2013-09-09 18:22:00,
2013-09-09 14:52:00,87.0,67.0,30.09,NW,309,1.0,3.0,51,0.00,,,0.00,,2013-09-09 18:52:00,
2013-09-09 15:12:00,87.0,66.0,30.09,SSW,208,1.0,3.0,50,0.00,,,0.00,,2013-09-09 19:12:00,
2013-09-09 15:22:00,87.0,66.0,30.08,NE,55,1.0,3.0,50,0.00,,,0.00,,2013-09-09 19:22:00,
2013-09-09 15:52:00,87.0,66.0,30.07,NE,42,1.0,5.0,50,0.00,,,0.00,,2013-09-09 19:52:00,
2013-09-09 16:22:00,86.0,67.0,30.08,SE,131,1.0,5.0,54,0.00,,,0.00,,2013-09-09 20:22:00,
2013-09-09 16:53:00,85.0,68.0,30.08,SE,146,0.0,4.0,56,0.00,,,0.00,,2013-09-09 20:53:00,
2013-09-09 17:22:00,85.0,68.0,30.08,ENE,71,0.0,5.0,57,0.00,,,0.00,,2013-09-09 21:22:00,
2013-09-09 17:54:00,85.0,69.0,30.08,SW,219,1.0,3.0,58,0.00,,,0.00,,2013-09-09 21:54:00,
2013-09-09 18:24:00,84.0,68.0,30.08,SE,144,0.0,2.0,59,0.00,,,0.00,,2013-09-09 22:24:00,
2013-09-09 18:54:00,82.0,68.0,30.07,South,171,0.0,2.0,63,0.00,,,0.00,,2013-09-09 22:54:00,
2013-09-09 19:22:00,81.0,69.0,30.08,South,171,0.0,1.0,67,0.00,,,0.00,,2013-09-09 23:22:00,
2013-09-09 19:52:00,79.0,69.0,30.08,South,171,0.0,0.0,71,0.00,,,0.00,,2013-09-09 23:52:00,
2013-09-09 20:12:00,79.0,70.0,30.08,South,171,0.0,0.0,73,0.00,,,0.00,,2013-09-10 00:12:00,
2013-09-09 20:22:00,78.0,69.0,30.08,South,171,0.0,1.0,75,0.00,,,0.00,,2013-09-10 00:22:00,
2013-09-09 20:42:00,77.0,69.0,30.08,South,171,0.0,1.0,76,0.00,,,0.00,,2013-09-10 00:42:00,
2013-09-09 20:52:00,76.0,68.0,30.09,South,171,0.0,1.0,77,0.00,,,0.00,,2013-09-10 00:52:00,
2013-09-09 21:21:00,75.0,68.0,30.10,South,171,0.0,0.0,80,0.00,,,0.00,,2013-09-10 01:21:00,
2013-09-09 21:52:00,74.0,68.0,30.10,South,171,0.0,0.0,83,0.00,,,0.00,,2013-09-10 01:52:00,
2013-09-09 22:02:00,74.0,68.0,30.10,South,171,0.0,0.0,83,0.00,,,0.00,,2013-09-10 02:02:00,
2013-09-09 22:22:00,73.0,68.0,30.11,South,171,0.0,0.0,84,0.00,,,0.00,,2013-09-10 02:22:00,
2013-09-09 22:52:00,72.0,68.0,30.11,South,171,0.0,2.0,86,0.00,,,0.00,,2013-09-10 02:52:00,
2013-09-09 23:22:00,72.0,68.0,30.12,South,171,0.0,1.0,87,0.00,,,0.00,,2013-09-10 03:22:00,
2013-09-09 23:54:00,72.0,68.0,30.13,South,171,0.0,1.0,88,0.00,,,0.00,,2013-09-10 03:54:00,